createdAt,value
2022-08-02T00:01:11.949Z,98023.44
2022-08-02T00:06:13.858Z,98022.06
2022-08-02T00:11:15.732Z,98026.56
2022-08-02T00:16:17.595Z,98029.84
2022-08-02T00:21:19.420Z,98039.47
2022-08-02T00:26:21.307Z,98032.88
2022-08-02T00:31:23.365Z,98025.00
2022-08-02T00:36:25.279Z,98007.03
2022-08-02T00:41:27.103Z,98011.25
2022-08-02T00:46:28.929Z,97994.25
2022-08-02T00:51:30.739Z,97999.88
2022-08-02T00:56:32.643Z,97995.38
2022-08-02T01:01:57.532Z,97987.09
2022-08-02T01:07:01.053Z,97995.16
2022-08-02T01:12:03.026Z,98011.66
2022-08-02T01:17:19.452Z,98011.75
2022-08-02T01:23:01.672Z,98011.25
2022-08-02T01:28:24.071Z,98004.94
2022-08-02T01:33:32.663Z,98000.50
2022-08-02T01:38:40.093Z,98002.09
2022-08-02T01:43:44.531Z,97999.25
2022-08-02T01:48:48.597Z,98004.44
2022-08-02T01:53:51.664Z,98009.44
2022-08-02T01:58:54.819Z,98009.19
2022-08-02T02:03:57.024Z,98005.88
2022-08-02T02:09:00.278Z,98012.47
2022-08-02T02:14:04.211Z,98011.25
2022-08-02T02:19:09.274Z,98010.38
2022-08-02T02:24:11.936Z,98017.00
2022-08-02T02:29:16.540Z,98018.91
2022-08-02T02:34:26.647Z,98008.34
2022-08-02T02:39:30.540Z,98020.72
2022-08-02T02:44:34.293Z,98020.47
2022-08-02T02:49:37.938Z,98019.44
2022-08-02T02:54:42.066Z,98010.69
2022-08-02T02:59:49.182Z,98013.88
2022-08-02T03:04:56.858Z,98019.28
2022-08-02T03:10:00.326Z,98018.03
2022-08-02T03:15:05.843Z,98024.41
2022-08-02T03:20:13.343Z,98032.38
2022-08-02T03:25:16.644Z,98030.38
2022-08-02T03:30:18.569Z,98029.44
2022-08-02T03:35:24.045Z,98029.97
2022-08-02T03:40:27.900Z,98030.69
2022-08-02T03:45:30.508Z,98019.19
2022-08-02T03:50:33.872Z,98024.81
2022-08-02T03:55:36.369Z,98025.22
2022-08-02T04:00:38.232Z,98037.72
2022-08-02T04:06:01.089Z,98045.47
2022-08-02T04:11:20.875Z,98055.53
2022-08-02T04:16:29.170Z,98064.44
2022-08-02T04:21:48.624Z,98069.56
2022-08-02T04:27:06.369Z,98074.78
2022-08-02T04:32:10.289Z,98077.66
2022-08-02T04:37:14.224Z,98080.13
2022-08-02T04:42:26.754Z,98093.22
2022-08-02T04:48:01.977Z,98089.09
2022-08-02T04:52:50.878Z,98089.25
2022-08-02T04:57:55.573Z,98084.53
2022-08-02T05:02:58.013Z,98085.59
2022-08-02T05:08:00.330Z,98087.91
2022-08-02T05:13:04.612Z,98090.94
2022-08-02T05:18:06.744Z,98086.97
2022-08-02T05:23:08.693Z,98098.06
2022-08-02T05:28:11.786Z,98093.44
2022-08-02T05:33:13.823Z,98086.78
2022-08-02T05:38:15.670Z,98081.25
2022-08-02T05:43:17.770Z,98093.75
2022-08-02T05:48:25.431Z,98094.63
2022-08-02T05:53:47.605Z,98090.25
2022-08-02T05:59:03.195Z,98099.75
2022-08-02T06:04:10.764Z,98102.63
2022-08-02T06:09:20.985Z,98109.75
2022-08-02T06:14:34.047Z,98117.06
2022-08-02T06:19:51.182Z,98118.53
2022-08-02T06:24:55.177Z,98122.06
2022-08-02T06:29:58.031Z,98130.31
2022-08-02T06:35:00.813Z,98139.63
2022-08-02T06:40:14.369Z,98130.34
2022-08-02T06:45:17.121Z,98137.13
2022-08-02T06:50:18.999Z,98145.13
2022-08-02T06:55:21.078Z,98139.34
2022-08-02T07:00:22.986Z,98146.56
2022-08-02T07:05:25.017Z,98133.28
2022-08-02T07:10:26.926Z,98135.88
2022-08-02T07:15:28.817Z,98126.50
2022-08-02T07:20:30.714Z,98125.75
2022-08-02T07:26:02.358Z,98121.88
2022-08-02T07:30:55.943Z,98107.34
2022-08-02T07:35:58.868Z,98111.38
2022-08-02T07:41:03.572Z,98098.44
2022-08-02T07:46:05.815Z,98092.66
2022-08-02T07:51:07.744Z,98088.22
2022-08-02T07:56:09.646Z,98086.03
2022-08-02T08:01:11.566Z,98083.19
2022-08-02T08:06:13.473Z,98086.13
2022-08-02T08:11:15.340Z,98083.97
2022-08-02T08:16:17.583Z,98088.09
2022-08-02T08:21:19.406Z,98085.59
2022-08-02T08:26:21.384Z,98090.78
2022-08-02T08:31:24.363Z,98090.84
2022-08-02T08:36:26.364Z,98094.75
2022-08-02T08:41:30.051Z,98098.53
2022-08-02T08:46:34.671Z,98086.38
2022-08-02T08:51:44.025Z,98088.03
2022-08-02T08:56:46.576Z,98092.59
2022-08-02T09:01:51.294Z,98076.56
2022-08-02T09:06:53.354Z,98078.44
2022-08-02T09:11:55.245Z,98088.84
2022-08-02T09:17:07.983Z,98083.44
2022-08-02T09:22:12.248Z,98071.06
2022-08-02T09:27:22.755Z,98081.75
2022-08-02T09:32:24.720Z,98077.72
2022-08-02T09:37:27.620Z,98068.72
2022-08-02T09:42:30.624Z,98066.28
2022-08-02T09:47:37.525Z,98056.94
2022-08-02T09:52:44.038Z,98061.44
2022-08-02T09:57:50.987Z,98051.66
2022-08-02T10:03:18.387Z,98046.53
2022-08-02T10:08:26.108Z,98050.28
2022-08-02T10:13:33.059Z,98037.44
2022-08-02T10:18:39.270Z,98040.97
2022-08-02T10:23:44.323Z,98037.97
2022-08-02T10:28:48.448Z,98044.84
2022-08-02T10:33:53.070Z,98037.56
2022-08-02T10:38:56.186Z,98040.09
2022-08-02T10:44:00.285Z,98030.88
2022-08-02T10:49:36.331Z,98042.19
2022-08-02T10:54:37.434Z,98040.66
2022-08-02T10:59:39.292Z,98029.16
2022-08-02T11:04:44.243Z,98043.19
2022-08-02T11:09:48.711Z,98032.13
2022-08-02T11:15:07.353Z,98038.47
2022-08-02T11:20:12.969Z,98034.44
2022-08-02T11:25:24.125Z,98040.28
2022-08-02T11:30:27.545Z,98036.72
2022-08-02T11:35:40.144Z,98032.22
2022-08-02T11:40:43.172Z,98016.06
2022-08-02T11:45:46.099Z,98012.50
2022-08-02T11:50:47.953Z,98018.44
2022-08-02T11:55:49.908Z,98021.78
2022-08-02T12:00:54.058Z,98003.72
2022-08-02T12:06:05.888Z,98009.75
2022-08-02T12:11:08.601Z,98006.81
2022-08-02T12:16:32.971Z,97999.84
2022-08-02T12:21:34.856Z,97999.03
2022-08-02T12:26:47.962Z,97993.03
2022-08-02T12:31:56.476Z,97976.72
2022-08-02T12:37:07.228Z,97987.78
2022-08-02T12:42:11.930Z,97979.28
2022-08-02T12:47:13.973Z,97987.22
2022-08-02T12:52:20.850Z,97992.09
2022-08-02T12:57:22.773Z,97981.53
2022-08-02T13:02:24.677Z,97976.31
2022-08-02T13:07:40.885Z,97979.78
2022-08-02T13:12:47.464Z,97979.34
2022-08-02T13:17:49.837Z,97983.16
2022-08-02T13:22:53.440Z,97975.34
2022-08-02T13:27:55.514Z,97957.78
2022-08-02T13:33:00.926Z,97966.91
2022-08-02T13:38:04.546Z,97952.75
2022-08-02T13:43:06.405Z,97949.34
2022-08-02T13:48:10.701Z,97936.13
2022-08-02T13:53:19.107Z,97938.25
2022-08-02T13:58:21.099Z,97936.94
2022-08-02T14:03:23.161Z,97927.69
2022-08-02T14:08:44.986Z,97923.44
2022-08-02T14:13:46.865Z,97913.66
2022-08-02T14:18:48.775Z,97907.94
2022-08-02T14:23:51.137Z,97932.78
2022-08-02T14:28:53.485Z,97937.44
2022-08-02T14:33:55.330Z,97921.56
2022-08-02T14:38:57.208Z,97919.72
2022-08-02T14:44:04.960Z,97893.25
2022-08-02T14:49:08.316Z,97891.50
2022-08-02T14:54:11.734Z,97886.94
2022-08-02T14:59:16.437Z,97896.88
2022-08-02T15:04:18.335Z,97886.34
2022-08-02T15:09:21.339Z,97873.19
2022-08-02T15:14:26.227Z,97879.66
2022-08-02T15:19:56.286Z,97889.22
2022-08-02T15:24:51.219Z,97879.19
2022-08-02T15:30:00.283Z,97871.63
2022-08-02T15:35:02.543Z,97853.56
2022-08-02T15:40:04.948Z,97845.09
2022-08-02T15:45:07.223Z,97843.16
2022-08-02T15:50:15.165Z,97846.25
2022-08-02T15:55:17.098Z,97846.97
2022-08-02T16:00:19.262Z,97841.66
2022-08-02T16:05:21.736Z,97837.41
2022-08-02T16:10:23.652Z,97845.19
2022-08-02T16:15:25.520Z,97834.78
2022-08-02T16:20:27.364Z,97836.47
2022-08-02T16:25:29.204Z,97840.66
2022-08-02T16:30:31.355Z,97842.44
2022-08-02T16:35:34.935Z,97839.72
2022-08-02T16:40:36.755Z,97833.34
2022-08-02T16:45:38.600Z,97833.97
2022-08-02T16:50:40.575Z,97832.25
2022-08-02T16:55:51.503Z,97836.84
2022-08-02T17:00:54.034Z,97827.97
2022-08-02T17:05:57.117Z,97834.97
2022-08-02T17:11:03.531Z,97828.47
2022-08-02T17:16:25.693Z,97840.97
2022-08-02T17:21:28.458Z,97834.44
2022-08-02T17:26:30.394Z,97845.22
2022-08-02T17:31:42.899Z,97849.03
2022-08-02T17:36:49.687Z,97847.44
2022-08-02T17:41:52.095Z,97851.47
2022-08-02T17:46:53.900Z,97849.41
2022-08-02T17:52:49.097Z,97848.41
2022-08-02T17:57:19.411Z,97849.22
2022-08-02T18:02:21.271Z,97853.75
2022-08-02T18:07:25.248Z,97846.59
2022-08-02T18:12:27.724Z,97849.81
2022-08-02T18:17:29.587Z,97852.19
2022-08-02T18:22:31.382Z,97857.25
2022-08-02T18:27:33.494Z,97851.63
2022-08-02T18:33:57.760Z,97857.69
2022-08-02T18:38:03.578Z,97854.66
2022-08-02T18:43:07.725Z,97857.72
2022-08-02T18:48:09.798Z,97861.78
2022-08-02T18:53:11.620Z,97860.50
2022-08-02T18:58:20.307Z,97864.03
2022-08-02T19:03:22.644Z,97875.13
2022-08-02T19:08:26.471Z,97866.84
2022-08-02T19:13:28.482Z,97879.00
2022-08-02T19:18:30.366Z,97890.59
2022-08-02T19:23:32.401Z,97890.88
2022-08-02T19:28:34.361Z,97893.81
2022-08-02T19:34:05.754Z,97884.69
2022-08-02T19:38:59.731Z,97888.69
2022-08-02T19:44:27.032Z,97890.47
2022-08-02T19:49:40.244Z,97895.28
2022-08-02T19:54:55.418Z,97903.66
2022-08-02T19:59:58.573Z,97910.78
2022-08-02T20:05:00.685Z,97911.66
2022-08-02T20:10:11.276Z,97917.75
2022-08-02T20:15:14.651Z,97915.47
2022-08-02T20:20:18.042Z,97913.97
2022-08-02T20:25:21.066Z,97917.56
2022-08-02T20:30:25.463Z,97916.28
2022-08-02T20:35:27.816Z,97921.22
2022-08-02T20:40:29.707Z,97916.63
2022-08-02T20:45:33.623Z,97925.28
2022-08-02T20:50:54.931Z,97927.78
2022-08-02T20:55:57.275Z,97930.84
2022-08-02T21:00:59.912Z,97929.22
2022-08-02T21:06:02.086Z,97923.34
2022-08-02T21:11:09.201Z,97928.78
2022-08-02T21:16:15.090Z,97928.16
2022-08-02T21:21:20.028Z,97924.00
2022-08-02T21:26:27.881Z,97923.25
2022-08-02T21:31:44.170Z,97911.19
2022-08-02T21:36:46.088Z,97910.31
2022-08-02T21:41:48.006Z,97910.69
2022-08-02T21:46:55.369Z,97906.50
2022-08-02T21:51:57.380Z,97908.19
2022-08-02T21:56:59.197Z,97912.34
2022-08-02T22:02:01.114Z,97911.00
2022-08-02T22:07:03.307Z,97911.13
2022-08-02T22:12:10.278Z,97906.97
2022-08-02T22:17:14.845Z,97907.84
2022-08-02T22:22:16.914Z,97912.53
2022-08-02T22:27:19.880Z,97920.09
2022-08-02T22:32:57.233Z,97917.72
2022-08-02T22:38:14.611Z,97916.75
2022-08-02T22:48:41.839Z,97927.50
2022-08-02T22:53:46.307Z,97918.31
2022-08-02T22:59:09.786Z,97919.97
2022-08-02T23:04:09.990Z,97915.38
2022-08-02T23:09:11.816Z,97924.91
2022-08-02T23:14:13.781Z,97920.28
2022-08-02T23:19:34.115Z,97918.03
2022-08-02T23:24:35.942Z,97927.34
2022-08-02T23:29:37.732Z,97915.69
2022-08-02T23:34:39.640Z,97917.34
2022-08-02T23:39:42.524Z,97916.16
2022-08-02T23:44:44.368Z,97928.06
2022-08-02T23:49:46.565Z,97926.25
2022-08-02T23:54:48.392Z,97916.19
2022-08-02T23:59:51.376Z,97916.81
